Time;durP1;ratioP1;P1;durP2;ratioP2;P2;SDS_P1;SDS_P2;PMS_P1;PMS_P2;Temp;Humidity;BMP_temperature;BMP_pressure;BME280_temperature;BME280_humidity;BME280_pressure;Samples;Min_cycle;Max_cycle;Signal;HPM_P1;HPM_P2
2023/05/01 00:01:15;;;;;;;13.70;5.60;;;;;;;9.56;49.53;99543.41;223535;183;139018;-71
2023/05/01 00:06:18;;;;;;;12.90;4.70;;;;;;;9.47;49.48;99545.98;223645;183;137323;-69
2023/05/01 00:11:21;;;;;;;11.20;4.70;;;;;;;9.42;49.51;99548.19;223703;183;146476;-69
2023/05/01 00:16:24;;;;;;;10.90;4.80;;;;;;;9.39;49.87;99543.73;223659;183;138883;-65
2023/05/01 00:21:28;;;;;;;7.30;4.20;;;;;;;9.36;49.63;99544.23;223676;184;137612;-66
2023/05/01 00:26:31;;;;;;;8.40;4.30;;;;;;;9.32;49.83;99543.70;223681;184;146506;-70
2023/05/01 00:31:35;;;;;;;10.20;4.50;;;;;;;9.28;50.11;99550.98;223700;184;138911;-65
2023/05/01 00:36:38;;;;;;;12.60;4.40;;;;;;;9.21;50.20;99552.89;223665;184;136718;-65
2023/05/01 00:41:41;;;;;;;9.00;4.40;;;;;;;9.16;50.82;99558.10;223606;184;145623;-67
2023/05/01 00:46:45;;;;;;;9.10;4.30;;;;;;;9.09;51.12;99561.62;223657;183;138885;-65
2023/05/01 00:51:52;;;;;;;11.00;4.20;;;;;;;9.03;51.33;99558.05;223665;184;136814;-68
2023/05/01 00:56:55;;;;;;;8.60;4.10;;;;;;;8.92;51.51;99556.59;223745;180;145120;-68
2023/05/01 01:01:59;;;;;;;9.90;4.40;;;;;;;8.84;51.68;99554.31;223421;184;138969;-69
2023/05/01 01:07:08;;;;;;;8.90;4.40;;;;;;;8.80;51.90;99559.30;223807;183;136321;-67
2023/05/01 01:12:25;;;;;;;10.00;4.40;;;;;;;8.76;52.28;99561.42;223786;183;145076;-65
2023/05/01 01:17:52;;;;;;;9.60;4.80;;;;;;;8.72;52.56;99563.02;223596;183;139103;-66
2023/05/01 01:23:18;;;;;;;13.70;6.20;;;;;;;8.60;52.93;99561.09;223572;183;136171;-64
2023/05/01 01:28:50;;;;;;;11.90;6.90;;;;;;;8.51;53.32;99558.13;223721;183;145787;-69
2023/05/01 01:34:24;;;;;;;14.00;6.20;;;;;;;8.41;53.72;99560.52;223639;183;138479;-64
2023/05/01 01:39:56;;;;;;;13.20;6.80;;;;;;;8.30;54.13;99558.53;223624;183;137780;-67
2023/05/01 01:45:09;;;;;;;11.40;6.60;;;;;;;8.21;54.46;99557.00;223651;183;146003;-66
2023/05/01 01:50:14;;;;;;;12.80;7.10;;;;;;;8.10;54.65;99555.83;223632;183;138641;-65
2023/05/01 01:55:24;;;;;;;11.80;6.60;;;;;;;8.04;55.04;99550.26;223669;184;136322;-65
2023/05/01 02:00:29;;;;;;;11.40;6.90;;;;;;;7.97;55.35;99551.66;223624;184;145453;-65
2023/05/01 02:05:34;;;;;;;15.80;6.90;;;;;;;7.92;55.72;99545.69;223681;184;138430;-65
2023/05/01 02:10:40;;;;;;;14.80;7.10;;;;;;;7.87;55.91;99544.14;223634;184;136998;-66
2023/05/01 02:15:44;;;;;;;12.60;6.50;;;;;;;7.82;56.01;99542.58;223653;183;146202;-65
2023/05/01 02:20:49;;;;;;;13.30;6.60;;;;;;;7.78;56.25;99541.86;223626;184;138242;-66
2023/05/01 02:25:54;;;;;;;13.80;6.40;;;;;;;7.71;56.06;99536.66;223667;183;136370;-65
2023/05/01 02:30:57;;;;;;;13.80;6.50;;;;;;;7.63;56.08;99537.73;223501;183;145703;-64
2023/05/01 02:36:04;;;;;;;15.10;6.40;;;;;;;7.56;56.48;99537.83;223526;184;138515;-65
2023/05/01 02:41:10;;;;;;;13.80;6.70;;;;;;;7.53;56.51;99541.86;223663;184;136898;-65
2023/05/01 02:46:16;;;;;;;9.40;5.40;;;;;;;7.48;56.88;99537.82;221538;183;145332;-70
2023/05/01 02:51:23;;;;;;;11.60;6.20;;;;;;;7.43;56.85;99538.04;220814;183;139208;-68
2023/05/01 02:56:29;;;;;;;16.50;6.40;;;;;;;7.34;57.01;99538.73;220897;183;136598;-68
2023/05/01 03:01:32;;;;;;;12.50;6.50;;;;;;;7.24;57.17;99537.91;221607;183;145696;-68
2023/05/01 03:06:35;;;;;;;10.00;6.10;;;;;;;7.13;57.24;99535.55;223722;184;138387;-67
2023/05/01 03:11:39;;;;;;;10.00;5.80;;;;;;;7.07;57.54;99540.34;223710;183;139250;-68
2023/05/01 03:16:43;;;;;;;9.80;5.50;;;;;;;7.02;57.66;99534.38;223729;183;145376;-68
2023/05/01 03:21:46;;;;;;;12.20;5.80;;;;;;;6.94;57.80;99534.16;223611;184;139403;-66
2023/05/01 03:26:49;;;;;;;13.80;5.10;;;;;;;6.86;57.77;99531.13;223672;184;138026;-67
2023/05/01 03:31:52;;;;;;;11.00;5.80;;;;;;;6.78;58.15;99526.67;223652;183;145842;-67
2023/05/01 03:36:55;;;;;;;9.70;5.60;;;;;;;6.75;58.31;99527.33;223694;184;137747;-66
2023/05/01 03:41:59;;;;;;;11.60;5.60;;;;;;;6.71;58.38;99523.61;223662;184;136674;-65
2023/05/01 03:47:07;;;;;;;11.00;6.10;;;;;;;6.70;58.23;99524.38;223637;184;145295;-65
2023/05/01 03:52:13;;;;;;;10.50;6.10;;;;;;;6.63;58.13;99521.45;223652;184;138386;-67
2023/05/01 03:57:19;;;;;;;11.40;5.60;;;;;;;6.61;58.39;99519.22;223702;183;137457;-65
2023/05/01 04:02:22;;;;;;;11.70;6.50;;;;;;;6.65;58.59;99517.49;223594;183;145288;-64
2023/05/01 04:07:25;;;;;;;14.60;7.10;;;;;;;6.64;58.57;99515.59;223646;184;139382;-67
2023/05/01 04:12:29;;;;;;;8.80;5.60;;;;;;;6.68;58.67;99512.06;223685;183;137052;-65
2023/05/01 04:17:32;;;;;;;13.00;5.40;;;;;;;6.75;58.60;99514.13;223677;183;145525;-64
2023/05/01 04:22:36;;;;;;;7.90;4.90;;;;;;;6.83;58.32;99512.73;223573;183;138788;-67
2023/05/01 04:27:39;;;;;;;10.50;5.70;;;;;;;6.89;58.21;99512.50;223501;183;136693;-65
2023/05/01 04:32:42;;;;;;;11.40;5.00;;;;;;;6.95;58.12;99513.66;223692;184;145349;-63
2023/05/01 04:37:45;;;;;;;9.30;5.10;;;;;;;7.03;58.26;99511.94;223700;183;139561;-64
2023/05/01 04:42:48;;;;;;;7.80;5.10;;;;;;;7.12;57.99;99504.52;223693;182;136344;-67
2023/05/01 04:47:52;;;;;;;11.30;4.60;;;;;;;7.22;57.72;99499.89;223615;182;146632;-68
2023/05/01 04:52:55;;;;;;;7.70;4.90;;;;;;;7.34;57.56;99499.05;223729;182;138074;-69
2023/05/01 04:57:58;;;;;;;9.80;5.00;;;;;;;7.48;57.53;99492.45;223738;183;136234;-69
2023/05/01 05:03:01;;;;;;;13.80;4.80;;;;;;;7.68;57.12;99494.25;223764;182;145146;-68
2023/05/01 05:08:08;;;;;;;10.40;4.60;;;;;;;7.86;57.26;99493.29;223742;183;152443;-65
2023/05/01 05:13:22;;;;;;;;;;;;;;;8.05;56.98;99491.58;223726;182;136864;-62
2023/05/01 05:18:37;;;;;;;8.50;4.80;;;;;;;8.30;56.70;99489.54;223758;183;147553;-67
2023/05/01 05:23:41;;;;;;;8.50;4.70;;;;;;;8.64;56.01;99488.55;223727;182;138180;-66
2023/05/01 05:28:44;;;;;;;9.60;4.90;;;;;;;8.95;55.25;99486.21;223791;183;135823;-69
2023/05/01 05:33:47;;;;;;;8.20;4.80;;;;;;;9.15;54.54;99490.21;223610;183;146393;-67
2023/05/01 05:38:52;;;;;;;10.50;5.70;;;;;;;9.32;54.26;99492.38;223865;182;139130;-64
2023/05/01 05:43:56;;;;;;;9.80;5.20;;;;;;;9.48;54.16;99492.48;223769;182;136294;-66
2023/05/01 05:49:00;;;;;;;11.50;5.40;;;;;;;9.67;54.02;99489.89;223799;182;145285;-67
2023/05/01 05:54:04;;;;;;;10.80;5.20;;;;;;;9.88;53.45;99495.90;223823;183;138810;-66
2023/05/01 05:59:09;;;;;;;10.40;5.70;;;;;;;10.06;53.28;99497.46;223754;183;136623;-67
2023/05/01 06:04:15;;;;;;;15.20;5.50;;;;;;;10.23;53.09;99491.93;223799;182;145287;-65
2023/05/01 06:09:19;;;;;;;10.40;5.60;;;;;;;10.42;53.19;99493.96;223751;182;138434;-67
2023/05/01 06:14:22;;;;;;;12.60;5.60;;;;;;;10.59;52.04;99489.84;223761;182;137045;-65
2023/05/01 06:19:26;;;;;;;14.40;6.40;;;;;;;10.77;51.51;99489.23;223758;182;146375;-68
2023/05/01 06:25:30;;;;;;;15.90;7.20;;;;;;;11.05;49.64;99487.10;221693;190;665488;-66
2023/05/01 06:30:34;;;;;;;15.90;6.90;;;;;;;11.21;49.10;99482.83;223330;186;136534;-66
2023/05/01 06:35:38;;;;;;;12.60;6.70;;;;;;;11.38;48.53;99484.85;223528;184;143250;-65
2023/05/01 06:40:45;;;;;;;12.20;6.20;;;;;;;11.61;47.17;99481.88;223718;184;140572;-66
2023/05/01 06:45:49;;;;;;;13.20;6.90;;;;;;;11.81;46.72;99477.86;224016;181;136774;-65
2023/05/01 06:50:52;;;;;;;11.80;6.00;;;;;;;11.99;46.10;99481.79;223887;181;143538;-64
2023/05/01 06:55:55;;;;;;;12.60;5.60;;;;;;;12.09;44.81;99476.73;223856;181;138836;-66
2023/05/01 07:00:58;;;;;;;11.90;5.00;;;;;;;12.26;44.41;99477.27;224029;181;136410;-68
2023/05/01 07:06:02;;;;;;;14.70;5.80;;;;;;;12.46;45.17;99473.55;223989;181;143886;-68
2023/05/01 07:11:06;;;;;;;10.40;4.90;;;;;;;12.63;44.62;99471.44;223878;181;138377;-67
2023/05/01 07:16:09;;;;;;;9.30;4.50;;;;;;;12.80;44.04;99468.89;223982;181;139663;-67
2023/05/01 07:21:13;;;;;;;9.00;4.20;;;;;;;13.00;43.41;99472.55;223867;181;145303;-67
2023/05/01 07:26:16;;;;;;;10.00;4.60;;;;;;;13.03;42.57;99477.34;223798;180;140199;-68
2023/05/01 07:31:19;;;;;;;12.50;4.60;;;;;;;13.10;42.70;99479.73;223728;181;137387;-68
2023/05/01 07:36:23;;;;;;;8.50;5.00;;;;;;;13.20;42.49;99480.52;223723;182;145685;-71
2023/05/01 07:41:26;;;;;;;12.20;4.90;;;;;;;13.23;42.43;99477.13;223713;181;138538;-66
2023/05/01 07:46:30;;;;;;;10.10;4.90;;;;;;;13.26;43.03;99476.40;223775;181;137313;-67
2023/05/01 07:51:33;;;;;;;8.60;4.70;;;;;;;13.36;42.94;99476.30;223845;181;147317;-68
2023/05/01 07:56:36;;;;;;;10.60;4.80;;;;;;;13.44;42.20;99474.50;223805;181;138438;-66
2023/05/01 08:01:40;;;;;;;10.50;4.20;;;;;;;13.55;41.61;99468.63;223755;181;136873;-66
2023/05/01 08:06:43;;;;;;;8.30;4.10;;;;;;;13.64;41.51;99466.08;223637;181;145847;-66
2023/05/01 08:11:46;;;;;;;8.90;3.70;;;;;;;13.74;41.28;99466.11;223776;181;138172;-66
2023/05/01 08:16:54;;;;;;;9.90;4.30;;;;;;;13.84;40.04;99465.02;223701;182;136774;-68
2023/05/01 08:21:57;;;;;;;7.20;4.00;;;;;;;13.97;39.40;99470.21;223735;181;145195;-66
2023/05/01 08:27:01;;;;;;;6.50;3.10;;;;;;;14.04;39.62;99468.67;223702;182;138479;-67
2023/05/01 08:32:04;;;;;;;10.60;5.10;;;;;;;14.17;39.85;99470.02;223712;181;138609;-67
2023/05/01 08:37:07;;;;;;;9.30;4.50;;;;;;;14.29;40.20;99469.20;223626;181;144926;-67
2023/05/01 08:42:12;;;;;;;11.40;5.30;;;;;;;14.41;40.87;99460.52;223712;182;137979;-66
2023/05/01 08:47:19;;;;;;;7.10;4.00;;;;;;;14.54;41.28;99456.20;223796;181;137213;-66
2023/05/01 08:52:32;;;;;;;7.90;3.30;;;;;;;14.69;40.14;99455.16;223756;181;145079;-67
2023/05/01 08:57:36;;;;;;;18.40;11.10;;;;;;;14.84;39.00;99458.48;223655;181;138366;-67
2023/05/01 09:02:41;;;;;;;8.70;3.40;;;;;;;15.12;39.91;99452.72;223725;182;137250;-66
2023/05/01 09:07:45;;;;;;;7.30;3.30;;;;;;;15.32;38.80;99447.08;223711;181;145411;-64
2023/05/01 09:12:56;;;;;;;7.10;2.70;;;;;;;15.63;40.29;99437.41;223610;181;139501;-68
2023/05/01 09:18:00;;;;;;;5.60;3.00;;;;;;;16.12;37.28;99432.05;223683;182;136624;-68
2023/05/01 09:23:06;;;;;;;6.90;2.60;;;;;;;16.13;36.31;99425.35;223700;181;147677;-69
2023/05/01 09:28:09;;;;;;;7.60;2.70;;;;;;;16.17;36.71;99415.50;223672;181;140290;-66
2023/05/01 09:33:15;;;;;;;6.00;2.90;;;;;;;16.25;36.55;99414.33;223676;181;136862;-66
2023/05/01 09:38:23;;;;;;;4.70;2.30;;;;;;;16.39;34.90;99408.23;223760;181;145084;-68
2023/05/01 09:43:28;;;;;;;5.00;2.50;;;;;;;16.54;34.75;99401.98;223754;181;138468;-68
2023/05/01 09:48:32;;;;;;;6.30;2.80;;;;;;;16.70;34.26;99392.45;223629;181;136721;-70
2023/05/01 09:53:39;;;;;;;4.80;2.50;;;;;;;16.83;35.06;99396.06;223674;181;145212;-67
2023/05/01 09:58:43;;;;;;;7.40;3.20;;;;;;;16.94;35.13;99385.51;223649;181;138478;-65
2023/05/01 10:03:52;;;;;;;5.70;2.90;;;;;;;17.01;35.48;99379.73;223558;181;140032;-68
2023/05/01 10:08:56;;;;;;;7.30;3.30;;;;;;;17.29;34.69;99372.56;223777;181;146019;-65
2023/05/01 10:14:08;;;;;;;6.30;3.40;;;;;;;17.59;32.57;99365.50;223655;182;138925;-68
2023/05/01 10:19:12;;;;;;;6.30;2.60;;;;;;;17.82;32.35;99367.64;223815;181;137339;-67
2023/05/01 10:24:16;;;;;;;6.90;3.20;;;;;;;18.04;33.35;99360.34;223694;181;145107;-67
2023/05/01 10:29:22;;;;;;;6.00;3.20;;;;;;;18.30;33.54;99356.77;223703;181;139226;-68
2023/05/01 10:34:26;;;;;;;13.60;10.50;;;;;;;18.52;31.65;99349.48;223745;181;137638;-68
2023/05/01 10:39:35;;;;;;;6.70;3.30;;;;;;;18.70;31.29;99346.95;223654;181;146041;-69
2023/05/01 10:44:38;;;;;;;7.80;3.20;;;;;;;18.91;30.35;99336.56;223638;181;138940;-69
2023/05/01 10:50:08;;;;;;;5.80;2.30;;;;;;;19.16;30.52;99334.78;223754;181;137129;-67
2023/05/01 10:55:31;;;;;;;3.80;2.00;;;;;;;19.30;29.78;99331.48;223685;181;145339;-68
2023/05/01 11:00:35;;;;;;;28.60;23.60;;;;;;;19.49;31.15;99330.96;223624;181;138664;-65
2023/05/01 11:05:58;;;;;;;5.40;2.80;;;;;;;19.64;29.79;99324.73;223746;181;137154;-63
2023/05/01 11:11:20;;;;;;;7.80;2.90;;;;;;;19.91;29.65;99312.79;223763;181;145401;-64
2023/05/01 11:16:41;;;;;;;5.30;2.20;;;;;;;20.21;29.38;99308.45;223670;181;139368;-64
2023/05/01 11:21:45;;;;;;;4.80;2.80;;;;;;;20.58;29.42;99298.70;223649;181;137875;-65
2023/05/01 11:26:58;;;;;;;5.20;3.20;;;;;;;20.87;27.90;99293.80;223777;181;146935;-63
2023/05/01 11:32:06;;;;;;;5.70;2.70;;;;;;;20.96;26.94;99285.48;223807;181;139705;-64
2023/05/01 11:37:10;;;;;;;5.60;2.80;;;;;;;21.17;28.71;99277.20;223648;181;137164;-63
2023/05/01 11:42:13;;;;;;;6.90;2.80;;;;;;;21.41;28.61;99272.05;223782;181;145292;-62
2023/05/01 11:47:16;;;;;;;7.40;3.20;;;;;;;21.52;27.42;99264.29;223679;182;139050;-63
2023/05/01 11:52:19;;;;;;;5.20;2.40;;;;;;;21.58;27.24;99261.81;223778;181;136923;-64
2023/05/01 11:57:23;;;;;;;6.20;2.40;;;;;;;21.55;27.02;99258.71;223841;181;145404;-64
2023/05/01 12:02:26;;;;;;;3.30;2.00;;;;;;;21.71;27.01;99258.84;223671;181;139713;-63
2023/05/01 12:07:29;;;;;;;3.80;2.00;;;;;;;21.97;27.49;99244.20;223648;181;136665;-65
2023/05/01 12:12:33;;;;;;;7.10;2.60;;;;;;;22.20;26.75;99243.92;223695;181;146160;-63
2023/05/01 12:17:36;;;;;;;3.40;1.80;;;;;;;22.46;28.19;99236.19;223698;182;138493;-61
2023/05/01 12:22:49;;;;;;;;;;;;;;;22.69;25.97;99227.73;223737;181;136656;-63
2023/05/01 12:27:53;;;;;;;4.20;1.90;;;;;;;22.84;26.40;99222.66;223723;181;145114;-62
2023/05/01 12:32:57;;;;;;;4.30;2.10;;;;;;;23.05;25.72;99217.98;223619;181;139418;-63
2023/05/01 12:38:11;;;;;;;5.70;2.30;;;;;;;23.16;25.77;99211.92;223687;181;137301;-63
2023/05/01 12:43:15;;;;;;;2.60;1.80;;;;;;;23.39;24.80;99199.21;223780;181;145717;-62
2023/05/01 12:48:20;;;;;;;4.70;2.40;;;;;;;23.56;24.74;99195.20;223769;181;139673;-64
2023/05/01 12:53:27;;;;;;;4.50;1.90;;;;;;;23.71;24.93;99185.43;223739;181;136793;-63
2023/05/01 12:58:37;;;;;;;4.80;2.20;;;;;;;23.88;24.78;99175.34;223740;181;146224;-63
2023/05/01 13:03:43;;;;;;;4.60;2.00;;;;;;;23.98;24.75;99165.10;223686;181;138033;-64
2023/05/01 13:08:46;;;;;;;3.70;1.60;;;;;;;24.18;24.05;99165.26;223754;181;137494;-62
2023/05/01 13:13:49;;;;;;;3.10;1.90;;;;;;;24.33;23.57;99162.75;223746;181;146413;-63
2023/05/01 13:18:52;;;;;;;4.50;1.80;;;;;;;24.59;23.67;99160.64;223785;182;138692;-64
2023/05/01 13:23:57;;;;;;;7.10;1.50;;;;;;;24.78;23.60;99155.44;223791;181;136857;-62
2023/05/01 13:29:02;;;;;;;5.30;1.90;;;;;;;24.96;23.11;99148.08;223730;182;147785;-64
2023/05/01 13:34:06;;;;;;;4.20;2.60;;;;;;;25.03;22.04;99143.23;223739;181;138933;-62
2023/05/01 13:39:16;;;;;;;3.60;1.70;;;;;;;24.97;21.82;99131.26;223674;181;137358;-63
2023/05/01 13:44:22;;;;;;;2.30;1.60;;;;;;;25.02;22.26;99124.15;223753;181;148025;-61
2023/05/01 13:49:28;;;;;;;2.70;1.30;;;;;;;25.14;22.61;99115.41;223711;181;138192;-61
2023/05/01 13:54:33;;;;;;;2.20;1.60;;;;;;;25.30;22.71;99111.45;223786;181;136881;-61
2023/05/01 13:59:41;;;;;;;5.60;1.70;;;;;;;25.35;21.06;99106.86;223803;182;145333;-59
2023/05/01 14:04:45;;;;;;;4.30;1.80;;;;;;;25.31;21.49;99106.10;223682;181;138485;-62
2023/05/01 14:09:54;;;;;;;3.30;1.60;;;;;;;25.38;21.86;99100.62;223815;181;136947;-63
2023/05/01 14:15:01;;;;;;;3.00;1.90;;;;;;;25.39;22.12;99095.05;223710;181;146107;-63
2023/05/01 14:20:07;;;;;;;2.30;1.40;;;;;;;25.32;22.02;99085.82;223700;181;138166;-62
2023/05/01 14:25:32;;;;;;;6.40;2.00;;;;;;;25.10;21.37;99085.55;223750;181;137015;-61
2023/05/01 14:30:37;;;;;;;;;;;;;;;24.77;21.73;99075.73;223780;182;145902;-63
2023/05/01 14:35:48;;;;;;;3.50;1.70;;;;;;;24.58;22.15;99065.88;223850;181;138161;-63
2023/05/01 14:40:52;;;;;;;4.00;1.60;;;;;;;24.34;21.65;99064.98;223650;181;136834;-67
2023/05/01 14:45:55;;;;;;;4.30;1.70;;;;;;;23.96;21.75;99057.10;223714;181;145306;-64
2023/05/01 14:50:59;;;;;;;4.40;2.00;;;;;;;23.61;22.24;99055.07;223708;181;138264;-65
2023/05/01 14:56:02;;;;;;;4.10;1.70;;;;;;;23.19;22.50;99048.42;223739;181;137968;-63
2023/05/01 15:01:05;;;;;;;3.10;1.50;;;;;;;22.88;23.03;99047.24;223537;181;162104;-64
2023/05/01 15:06:09;;;;;;;3.60;1.70;;;;;;;22.61;22.75;99043.27;223678;181;138414;-61
2023/05/01 15:11:13;;;;;;;3.40;1.80;;;;;;;22.35;23.02;99039.59;223627;181;137396;-63
2023/05/01 15:16:16;;;;;;;4.50;1.80;;;;;;;22.13;23.48;99036.05;223722;181;146937;-61
2023/05/01 15:21:19;;;;;;;4.80;1.90;;;;;;;21.94;23.59;99034.95;223619;181;138746;-61
2023/05/01 15:26:22;;;;;;;5.70;1.70;;;;;;;21.82;24.22;99032.87;223747;181;139101;-62
2023/05/01 15:31:25;;;;;;;2.70;1.70;;;;;;;21.81;25.01;99024.23;223679;181;146925;-64
2023/05/01 15:36:30;;;;;;;4.20;1.90;;;;;;;21.79;24.78;99021.20;223684;181;139958;-65
2023/05/01 17:45:31;;;;;;;5.40;2.30;;;;;;;19.63;32.15;98972.33;220209;188;666755;-63
2023/05/01 17:50:34;;;;;;;6.90;2.40;;;;;;;19.55;32.37;98974.42;220570;186;137155;-64
2023/05/01 17:55:38;;;;;;;4.80;2.50;;;;;;;19.42;32.82;98970.86;220971;183;144985;-64
2023/05/01 18:00:42;;;;;;;5.80;2.50;;;;;;;19.30;32.87;98971.55;221044;183;140465;-63
2023/05/01 18:05:46;;;;;;;7.10;2.80;;;;;;;19.15;33.02;98974.45;221043;183;137312;-63
2023/05/01 18:10:50;;;;;;;5.70;2.80;;;;;;;19.03;33.76;98976.33;221006;183;146236;-62
2023/05/01 18:15:54;;;;;;;6.30;2.60;;;;;;;18.87;33.27;98973.74;220969;183;143320;-66
2023/05/01 18:20:58;;;;;;;5.30;2.80;;;;;;;18.56;33.18;98977.98;220984;183;136636;-68
2023/05/01 18:26:02;;;;;;;7.60;3.30;;;;;;;18.31;33.83;98973.23;220935;183;144631;-67
2023/05/01 18:31:05;;;;;;;4.20;2.60;;;;;;;18.07;34.41;98975.11;220960;183;139910;-65
2023/05/01 18:36:09;;;;;;;5.90;3.20;;;;;;;17.85;35.03;98978.23;221022;183;137986;-66
2023/05/01 18:41:13;;;;;;;28.60;21.60;;;;;;;17.69;35.48;98982.20;220928;183;145770;-66
2023/05/01 19:30:02;;;;;;;9.00;4.70;;;;;;;16.82;39.15;98979.55;219269;193;691449;-65
2023/05/01 20:25:23;;;;;;;14.00;5.00;;;;;;;15.81;42.65;98961.27;219522;193;667151;-68
2023/05/01 20:30:26;;;;;;;9.50;5.00;;;;;;;15.62;42.88;98958.91;220793;183;136249;-67
2023/05/01 20:35:34;;;;;;;11.50;5.00;;;;;;;15.44;42.88;98961.27;220772;183;144554;-65
2023/05/01 20:40:43;;;;;;;34.60;27.00;;;;;;;15.36;44.30;98956.77;220768;183;138716;-66
2023/05/01 20:45:46;;;;;;;10.00;5.20;;;;;;;15.30;44.29;98962.79;220751;183;137946;-62
2023/05/01 20:50:50;;;;;;;9.80;5.20;;;;;;;15.16;44.19;98961.46;220886;183;144809;-67
2023/05/01 20:55:55;;;;;;;10.60;4.70;;;;;;;15.01;44.44;98963.04;220819;183;138989;-66
2023/05/01 21:01:03;;;;;;;11.50;5.40;;;;;;;14.89;44.51;98962.20;220854;183;136498;-65
2023/05/01 21:06:07;;;;;;;10.30;5.30;;;;;;;14.79;44.93;98967.19;220920;183;145033;-67
2023/05/01 21:11:11;;;;;;;9.40;5.20;;;;;;;14.70;45.36;98970.41;220866;183;139343;-66
2023/05/01 21:16:15;;;;;;;15.60;7.70;;;;;;;14.63;45.58;98973.29;220937;183;137363;-64
2023/05/01 21:21:18;;;;;;;15.50;9.50;;;;;;;14.57;46.62;98975.85;220836;183;145758;-68
2023/05/01 21:26:22;;;;;;;10.90;5.40;;;;;;;14.53;45.99;98981.19;220847;183;140375;-65
2023/05/01 21:31:29;;;;;;;10.10;5.70;;;;;;;14.44;45.96;98979.52;220751;183;136766;-67
2023/05/01 21:36:41;;;;;;;9.30;5.20;;;;;;;14.38;46.23;98985.49;220745;184;145754;-67
2023/05/01 21:41:48;;;;;;;9.90;5.40;;;;;;;14.30;46.63;98993.31;220758;183;140556;-66
2023/05/01 21:46:55;;;;;;;8.90;5.30;;;;;;;14.19;46.73;98992.90;220854;183;136656;-65
2023/05/01 21:52:00;;;;;;;12.60;5.50;;;;;;;14.11;47.07;99001.27;220756;184;146869;-67
2023/05/01 21:57:06;;;;;;;10.20;5.90;;;;;;;14.01;47.25;99002.70;220734;184;139450;-68
2023/05/01 22:02:11;;;;;;;78.30;54.50;;;;;;;13.92;47.52;99001.79;220817;184;136584;-67
2023/05/01 22:07:15;;;;;;;16.60;8.00;;;;;;;13.88;48.19;99008.70;220832;184;146152;-67
2023/05/01 22:12:18;;;;;;;14.30;6.80;;;;;;;13.79;48.19;99011.20;220875;183;140486;-69
2023/05/01 22:17:23;;;;;;;10.90;6.50;;;;;;;13.66;48.03;99019.08;220783;183;137461;-68
2023/05/01 22:22:26;;;;;;;11.80;5.90;;;;;;;13.57;48.20;99022.80;220808;184;145864;-67
2023/05/01 22:27:31;;;;;;;70.60;52.60;;;;;;;13.52;49.42;99022.80;221032;182;139160;-66
2023/05/01 22:32:34;;;;;;;16.00;7.80;;;;;;;13.49;49.09;99025.16;220983;181;137374;-68
2023/05/01 22:37:38;;;;;;;10.80;6.30;;;;;;;13.42;48.98;99023.87;221090;181;146139;-69
2023/05/01 22:42:42;;;;;;;15.00;6.10;;;;;;;13.32;49.37;99024.98;220971;181;139182;-67
2023/05/01 22:47:45;;;;;;;10.60;5.80;;;;;;;13.25;50.28;99026.39;221071;181;136981;-68
2023/05/01 22:52:50;;;;;;;11.50;6.00;;;;;;;13.17;50.23;99025.49;221089;182;145884;-66
2023/05/01 22:57:53;;;;;;;15.30;6.10;;;;;;;13.10;50.40;99023.02;221180;182;139160;-68
2023/05/01 23:02:59;;;;;;;11.30;5.90;;;;;;;13.03;50.47;99024.79;221197;181;136559;-66
2023/05/01 23:08:03;;;;;;;11.60;6.00;;;;;;;12.97;50.97;99030.19;221197;182;146038;-65
2023/05/01 23:13:18;;;;;;;11.40;6.30;;;;;;;12.90;50.98;99031.74;221076;181;139445;-70
2023/05/01 23:18:28;;;;;;;15.40;7.90;;;;;;;12.82;51.78;99037.69;221061;182;137302;-67
2023/05/01 23:23:34;;;;;;;18.10;8.70;;;;;;;12.71;52.26;99045.02;221071;181;146236;-68
2023/05/01 23:28:43;;;;;;;17.10;10.30;;;;;;;12.59;52.71;99039.14;221043;181;138408;-70
2023/05/01 23:33:46;;;;;;;18.80;11.20;;;;;;;12.43;53.06;99035.46;221152;181;137485;-69
2023/05/01 23:38:50;;;;;;;19.20;10.40;;;;;;;12.32;53.58;99035.13;220961;181;145385;-67
2023/05/01 23:43:53;;;;;;;17.10;10.10;;;;;;;12.24;53.85;99040.67;220993;181;139002;-66
2023/05/01 23:48:56;;;;;;;20.20;10.90;;;;;;;12.17;54.10;99039.58;221076;181;138788;-67
2023/05/01 23:54:06;;;;;;;19.60;9.80;;;;;;;12.06;54.48;99037.80;220974;181;145614;-67
2023/05/01 23:59:13;;;;;;;22.60;9.50;;;;;;;11.97;54.79;99042.17;221080;177;140893;-66
